Time;durP1;ratioP1;P1;durP2;ratioP2;P2;SDS_P1;SDS_P2;PMS_P1;PMS_P2;Temp;Humidity;BMP_temperature;BMP_pressure;BME280_temperature;BME280_humidity;BME280_pressure;Samples;Min_cycle;Max_cycle;Signal;HPM_P1;HPM_P2
2022/12/19 00:00:41;;;;;;;;;;;;;;;;;;4411580;32;70396;-64
2022/12/19 00:03:28;;;;;;;;;;;;;;;;;;4365014;32;67755;-65
2022/12/19 00:06:16;;;;;;;;;;;;;;;;;;4396817;32;66662;-64
2022/12/19 00:09:03;;;;;;;;;;;;;;;;;;4399461;32;70894;-64
2022/12/19 00:11:49;;;;;;;;;;;;;;;;;;4388730;32;65994;-64
2022/12/19 00:14:37;;;;;;;;;;;;;;;;;;4411388;32;67249;-65
2022/12/19 00:17:23;;;;;;;;;;;;;;;;;;4375593;32;58469;-65
2022/12/19 00:20:10;;;;;;;;;;;;;;;;;;4411250;32;71937;-65
2022/12/19 00:22:57;;;;;;;;;;;;;;;;;;4399321;32;65896;-65
2022/12/19 00:25:44;;;;;;;;;;;;;;;;;;4411366;32;68020;-66
2022/12/19 00:28:31;;;;;;;;;;;;;;;;;;4386106;32;57770;-64
2022/12/19 00:31:18;;;;;;;;;;;;;;;;;;4399127;32;70460;-64
2022/12/19 00:34:05;;;;;;;;;;;;;;;;;;4385449;32;68187;-66
2022/12/19 00:36:52;;;;;;;;;;;;;;;;;;4399329;32;67733;-64
2022/12/19 00:39:39;;;;;;;;;;;;;;;;;;4398988;32;70949;-64
2022/12/19 00:42:27;;;;;;;;;;;;;;;;;;4386111;32;64982;-65
2022/12/19 00:45:13;;;;;;;;;;;;;;;;;;4411014;32;68264;-64
2022/12/19 00:47:59;;;;;;;;;;;;;;;;;;4399133;32;68163;-66
2022/12/19 00:50:46;;;;;;;;;;;;;;;;;;4398828;32;72014;-65
2022/12/19 00:53:32;;;;;;;;;;;;;;;;;;4382641;32;64923;-64
2022/12/19 00:56:19;;;;;;;;;;;;;;;;;;4393868;32;66952;-66
2022/12/19 00:59:06;;;;;;;;;;;;;;;;;;4383982;32;58757;-66
2022/12/19 01:01:52;;;;;;;;;;;;;;;;;;4383660;32;69888;-66
2022/12/19 01:04:38;;;;;;;;;;;;;;;;;;4391556;32;69302;-66
2022/12/19 01:07:25;;;;;;;;;;;;;;;;;;4384042;32;66893;-66
2022/12/19 01:10:11;;;;;;;;;;;;;;;;;;4383907;32;57600;-66
2022/12/19 01:12:57;;;;;;;;;;;;;;;;;;4383486;32;68985;-65
2022/12/19 01:15:44;;;;;;;;;;;;;;;;;;4372733;32;68628;-66
2022/12/19 01:18:30;;;;;;;;;;;;;;;;;;4383848;32;67880;-64
2022/12/19 01:21:18;;;;;;;;;;;;;;;;;;4383426;32;69859;-65
2022/12/19 01:24:04;;;;;;;;;;;;;;;;;;4385539;32;66131;-64
2022/12/19 01:26:51;;;;;;;;;;;;;;;;;;4373385;32;66949;-65
2022/12/19 01:29:37;;;;;;;;;;;;;;;;;;4362076;32;58493;-64
2022/12/19 01:32:24;;;;;;;;;;;;;;;;;;4383761;32;69474;-65
2022/12/19 01:35:10;;;;;;;;;;;;;;;;;;4385029;32;65894;-65
2022/12/19 01:37:58;;;;;;;;;;;;;;;;;;4352062;32;65390;-66
2022/12/19 01:40:54;;;;;;;;;;;;;;;;;;4372550;32;58280;-64
2022/12/19 01:44:06;;;;;;;;;;;;;;;;;;4383803;32;69521;-65
2022/12/19 01:46:53;;;;;;;;;;;;;;;;;;4383532;32;68970;-65
2022/12/19 01:49:39;;;;;;;;;;;;;;;;;;4383695;32;67584;-65
2022/12/19 01:52:26;;;;;;;;;;;;;;;;;;4372887;32;71958;-66
2022/12/19 01:55:14;;;;;;;;;;;;;;;;;;4383507;32;65286;-64
2022/12/19 01:58:00;;;;;;;;;;;;;;;;;;4373211;32;67660;-66
2022/12/19 02:00:47;;;;;;;;;;;;;;;;;;4383431;32;67768;-66
2022/12/19 02:03:34;;;;;;;;;;;;;;;;;;4372223;32;70347;-65
2022/12/19 02:06:20;;;;;;;;;;;;;;;;;;4383420;32;66420;-64
2022/12/19 02:09:08;;;;;;;;;;;;;;;;;;4372025;32;65074;-64
2022/12/19 02:11:54;;;;;;;;;;;;;;;;;;4361688;32;60205;-64
2022/12/19 02:14:41;;;;;;;;;;;;;;;;;;4361202;32;70228;-65
2022/12/19 02:17:38;;;;;;;;;;;;;;;;;;4382374;32;68686;-64
2022/12/19 02:20:33;;;;;;;;;;;;;;;;;;4372420;32;66770;-64
2022/12/19 02:23:21;;;;;;;;;;;;;;;;;;4383390;32;58607;-65
2022/12/19 02:26:26;;;;;;;;;;;;;;;;;;4383254;32;69376;-65
2022/12/19 02:29:15;;;;;;;;;;;;;;;;;;4371593;32;70100;-65
2022/12/19 02:32:06;;;;;;;;;;;;;;;;;;4383031;32;67033;-66
2022/12/19 02:34:59;;;;;;;;;;;;;;;;;;4361262;32;69442;-64
2022/12/19 02:37:50;;;;;;;;;;;;;;;;;;4383253;32;66140;-64
2022/12/19 02:40:41;;;;;;;;;;;;;;;;;;4371384;32;66049;-65
2022/12/19 02:43:29;;;;;;;;;;;;;;;;;;4371616;32;60329;-66
2022/12/19 02:46:16;;;;;;;;;;;;;;;;;;4382910;32;70143;-65
2022/12/19 02:49:02;;;;;;;;;;;;;;;;;;4383041;32;65228;-65
2022/12/19 02:51:49;;;;;;;;;;;;;;;;;;4361632;32;68004;-67
2022/12/19 02:54:36;;;;;;;;;;;;;;;;;;4372091;32;58974;-65
2022/12/19 02:57:23;;;;;;;;;;;;;;;;;;4371391;32;70697;-64
2022/12/19 03:00:09;;;;;;;;;;;;;;;;;;4383854;32;69653;-65
2022/12/19 03:03:08;;;;;;;;;;;;;;;;;;4383015;32;67274;-64
2022/12/19 03:06:03;;;;;;;;;;;;;;;;;;4382621;32;72140;-64
2022/12/19 03:09:09;;;;;;;;;;;;;;;;;;4382706;32;65127;-64
2022/12/19 03:12:01;;;;;;;;;;;;;;;;;;4368981;32;68234;-63
2022/12/19 03:14:48;;;;;;;;;;;;;;;;;;4382259;32;67509;-65
2022/12/19 03:17:37;;;;;;;;;;;;;;;;;;4382534;32;72048;-65
2022/12/19 03:20:44;;;;;;;;;;;;;;;;;;4382670;32;65103;-66
2022/12/19 03:23:30;;;;;;;;;;;;;;;;;;4371733;32;66717;-64
2022/12/19 03:26:18;;;;;;;;;;;;;;;;;;4382716;32;60082;-65
2022/12/19 03:29:13;;;;;;;;;;;;;;;;;;4361136;32;70356;-64
2022/12/19 03:32:00;;;;;;;;;;;;;;;;;;4382466;32;69414;-64
2022/12/19 03:34:48;;;;;;;;;;;;;;;;;;4371705;32;67843;-64
2022/12/19 03:37:35;;;;;;;;;;;;;;;;;;4382676;32;71805;-65
2022/12/19 03:40:22;;;;;;;;;;;;;;;;;;4361143;32;69294;-64
2022/12/19 03:43:09;;;;;;;;;;;;;;;;;;4383021;32;69123;-64
2022/12/19 03:45:55;;;;;;;;;;;;;;;;;;4376624;32;68106;-65
2022/12/19 03:48:44;;;;;;;;;;;;;;;;;;4377299;32;72558;-65
2022/12/19 03:51:39;;;;;;;;;;;;;;;;;;4387972;32;66649;-65
2022/12/19 03:54:30;;;;;;;;;;;;;;;;;;4359006;32;65666;-65
2022/12/19 03:57:16;;;;;;;;;;;;;;;;;;4382511;32;60129;-65
2022/12/19 04:00:23;;;;;;;;;;;;;;;;;;4370168;32;70857;-65
2022/12/19 04:03:09;;;;;;;;;;;;;;;;;;4367038;32;68583;-65
2022/12/19 04:05:55;;;;;;;;;;;;;;;;;;4377838;32;66976;-65
2022/12/19 04:08:42;;;;;;;;;;;;;;;;;;4356706;32;59032;-65
2022/12/19 04:11:29;;;;;;;;;;;;;;;;;;4356011;32;70629;-64
2022/12/19 04:14:19;;;;;;;;;;;;;;;;;;4367985;32;69279;-64
2022/12/19 04:17:24;;;;;;;;;;;;;;;;;;4355541;32;67115;-64
2022/12/19 04:20:14;;;;;;;;;;;;;;;;;;4365967;32;72220;-64
2022/12/19 04:23:02;;;;;;;;;;;;;;;;;;4377412;32;66143;-64
2022/12/19 04:25:49;;;;;;;;;;;;;;;;;;4368031;32;67724;-63
2022/12/19 04:28:35;;;;;;;;;;;;;;;;;;4377841;32;60009;-65
2022/12/19 04:31:22;;;;;;;;;;;;;;;;;;4366530;32;72140;-64
2022/12/19 04:34:08;;;;;;;;;;;;;;;;;;4356133;32;65812;-66
2022/12/19 04:36:55;;;;;;;;;;;;;;;;;;4356256;32;67802;-64
2022/12/19 04:39:41;;;;;;;;;;;;;;;;;;4357703;32;60761;-65
2022/12/19 04:42:27;;;;;;;;;;;;;;;;;;4370388;32;69903;-64
2022/12/19 04:45:17;;;;;;;;;;;;;;;;;;4369509;32;69441;-64
2022/12/19 04:48:04;;;;;;;;;;;;;;;;;;4370721;32;67688;-66
2022/12/19 04:50:50;;;;;;;;;;;;;;;;;;4369487;32;71771;-64
2022/12/19 04:53:36;;;;;;;;;;;;;;;;;;4363642;32;70558;-64
2022/12/19 04:56:23;;;;;;;;;;;;;;;;;;4362179;32;69955;-63
2022/12/19 04:59:09;;;;;;;;;;;;;;;;;;4374792;32;67746;-64
2022/12/19 05:01:55;;;;;;;;;;;;;;;;;;4353145;32;71442;-65
2022/12/19 05:04:42;;;;;;;;;;;;;;;;;;4383954;32;66886;-66
2022/12/19 05:07:28;;;;;;;;;;;;;;;;;;4374033;32;68542;-64
2022/12/19 05:10:14;;;;;;;;;;;;;;;;;;4365259;32;58429;-65
2022/12/19 05:13:00;;;;;;;;;;;;;;;;;;4388862;32;69149;-64
2022/12/19 05:15:54;;;;;;;;;;;;;;;;;;4385711;32;68635;-64
2022/12/19 05:18:40;;;;;;;;;;;;;;;;;;4372845;32;68008;-64
2022/12/19 05:21:27;;;;;;;;;;;;;;;;;;4362439;32;59980;-64
2022/12/19 05:24:13;;;;;;;;;;;;;;;;;;4372423;32;69888;-64
2022/12/19 05:26:59;;;;;;;;;;;;;;;;;;4373274;32;69243;-64
2022/12/19 05:29:45;;;;;;;;;;;;;;;;;;4383837;32;67688;-65
2022/12/19 05:32:33;;;;;;;;;;;;;;;;;;4383744;32;71626;-65
2022/12/19 05:35:19;;;;;;;;;;;;;;;;;;4383855;32;65309;-64
2022/12/19 05:38:06;;;;;;;;;;;;;;;;;;4384890;32;68209;-65
2022/12/19 05:40:52;;;;;;;;;;;;;;;;;;4373077;32;58789;-65
2022/12/19 05:43:39;;;;;;;;;;;;;;;;;;4372176;32;73064;-64
2022/12/19 05:46:26;;;;;;;;;;;;;;;;;;4383674;32;65275;-64
2022/12/19 05:49:12;;;;;;;;;;;;;;;;;;4385007;32;67340;-63
2022/12/19 05:52:01;;;;;;;;;;;;;;;;;;4363106;32;59840;-64
2022/12/19 05:54:48;;;;;;;;;;;;;;;;;;4383148;32;70341;-64
2022/12/19 05:57:34;;;;;;;;;;;;;;;;;;4372707;32;69731;-64
2022/12/19 06:00:21;;;;;;;;;;;;;;;;;;4362337;32;68011;-64
2022/12/19 06:03:07;;;;;;;;;;;;;;;;;;4371841;32;71606;-63
2022/12/19 06:05:53;;;;;;;;;;;;;;;;;;4385117;32;65790;-64
2022/12/19 06:08:41;;;;;;;;;;;;;;;;;;4361496;32;69947;-64
2022/12/19 06:11:27;;;;;;;;;;;;;;;;;;4372754;32;68217;-65
2022/12/19 06:14:14;;;;;;;;;;;;;;;;;;4382540;32;72442;-65
2022/12/19 06:17:00;;;;;;;;;;;;;;;;;;4383187;32;66021;-64
2022/12/19 06:19:46;;;;;;;;;;;;;;;;;;4361798;32;67668;-66
2022/12/19 06:22:33;;;;;;;;;;;;;;;;;;4372778;32;58738;-64
2022/12/19 06:25:19;;;;;;;;;;;;;;;;;;4361118;32;70323;-65
2022/12/19 06:28:05;;;;;;;;;;;;;;;;;;4372288;32;69579;-63
2022/12/19 06:30:54;;;;;;;;;;;;;;;;;;4361856;32;66911;-64
2022/12/19 06:33:41;;;;;;;;;;;;;;;;;;4371831;32;59464;-65
2022/12/19 06:36:28;;;;;;;;;;;;;;;;;;4382867;32;69298;-64
2022/12/19 06:39:14;;;;;;;;;;;;;;;;;;4372343;32;69512;-64
2022/12/19 06:45:06;;;;;;;;;;;;;;;;;;4382852;32;71263;-64
2022/12/19 06:47:53;;;;;;;;;;;;;;;;;;4372716;32;65394;-64
2022/12/19 06:50:39;;;;;;;;;;;;;;;;;;4372081;32;68281;-66
2022/12/19 06:53:26;;;;;;;;;;;;;;;;;;4371266;32;60644;-64
2022/12/19 06:56:13;;;;;;;;;;;;;;;;;;4370795;32;70567;-64
2022/12/19 06:59:00;;;;;;;;;;;;;;;;;;4384020;32;65079;-65
2022/12/19 07:01:49;;;;;;;;;;;;;;;;;;4382448;32;67392;-65
2022/12/19 07:04:37;;;;;;;;;;;;;;;;;;4383598;32;59972;-66
2022/12/19 07:07:23;;;;;;;;;;;;;;;;;;4361381;32;70289;-64
2022/12/19 07:10:10;;;;;;;;;;;;;;;;;;4382408;32;69696;-65
2022/12/19 07:12:57;;;;;;;;;;;;;;;;;;4370971;32;67959;-64
2022/12/19 07:15:43;;;;;;;;;;;;;;;;;;4381868;32;72821;-64
2022/12/19 07:18:30;;;;;;;;;;;;;;;;;;4360630;32;67420;-64
2022/12/19 07:21:17;;;;;;;;;;;;;;;;;;4382311;32;68787;-64
2022/12/19 07:24:04;;;;;;;;;;;;;;;;;;4371584;32;67831;-64
2022/12/19 07:26:50;;;;;;;;;;;;;;;;;;4382066;32;70784;-65
2022/12/19 07:29:36;;;;;;;;;;;;;;;;;;4370904;32;65671;-63
2022/12/19 07:32:23;;;;;;;;;;;;;;;;;;4382321;32;67597;-64
2022/12/19 07:35:09;;;;;;;;;;;;;;;;;;4360607;32;60286;-64
2022/12/19 07:38:03;;;;;;;;;;;;;;;;;;4370677;32;70315;-65
2022/12/19 07:40:49;;;;;;;;;;;;;;;;;;4361158;32;68457;-65
2022/12/19 07:43:35;;;;;;;;;;;;;;;;;;4361009;32;67584;-66
2022/12/19 07:46:22;;;;;;;;;;;;;;;;;;4360612;32;59263;-64
2022/12/19 07:49:10;;;;;;;;;;;;;;;;;;4371718;32;69200;-64
2022/12/19 07:51:56;;;;;;;;;;;;;;;;;;4371333;32;69572;-65
2022/12/19 07:54:43;;;;;;;;;;;;;;;;;;4381158;32;67398;-64
2022/12/19 07:57:29;;;;;;;;;;;;;;;;;;4360313;32;69413;-64
2022/12/19 08:00:16;;;;;;;;;;;;;;;;;;4371665;32;66117;-64
2022/12/19 08:03:03;;;;;;;;;;;;;;;;;;4371404;32;68032;-64
2022/12/19 08:05:49;;;;;;;;;;;;;;;;;;4371748;32;58734;-64
2022/12/19 08:08:36;;;;;;;;;;;;;;;;;;4370343;32;69089;-64
2022/12/19 08:11:26;;;;;;;;;;;;;;;;;;4382146;32;66015;-65
2022/12/19 08:14:13;;;;;;;;;;;;;;;;;;4361202;32;69348;-64
2022/12/19 08:16:59;;;;;;;;;;;;;;;;;;4352610;32;59864;-64
2022/12/19 08:19:46;;;;;;;;;;;;;;;;;;4373865;32;69583;-65
2022/12/19 08:22:33;;;;;;;;;;;;;;;;;;4363164;32;68749;-66
2022/12/19 08:25:19;;;;;;;;;;;;;;;;;;4383797;32;67260;-67
2022/12/19 08:28:06;;;;;;;;;;;;;;;;;;4373220;32;69724;-66
2022/12/19 08:30:52;;;;;;;;;;;;;;;;;;4385565;32;65031;-66
2022/12/19 08:33:39;;;;;;;;;;;;;;;;;;4362938;32;68014;-65
2022/12/19 08:36:25;;;;;;;;;;;;;;;;;;4384157;32;66991;-64
2022/12/19 08:39:12;;;;;;;;;;;;;;;;;;4351880;32;73041;-64
2022/12/19 08:41:59;;;;;;;;;;;;;;;;;;4384202;32;65942;-64
2022/12/19 08:44:46;;;;;;;;;;;;;;;;;;4372872;32;68686;-65
2022/12/19 08:47:32;;;;;;;;;;;;;;;;;;4386392;32;59010;-64
2022/12/19 08:50:19;;;;;;;;;;;;;;;;;;4385304;32;69808;-65
2022/12/19 08:53:05;;;;;;;;;;;;;;;;;;4385113;32;69171;-64
2022/12/19 08:55:59;;;;;;;;;;;;;;;;;;4364296;32;68329;-64
2022/12/19 08:58:46;;;;;;;;;;;;;;;;;;4367566;32;71077;-64
2022/12/19 09:01:32;;;;;;;;;;;;;;;;;;4386115;32;69090;-64
2022/12/19 09:04:18;;;;;;;;;;;;;;;;;;4386010;32;69902;-64
2022/12/19 09:07:04;;;;;;;;;;;;;;;;;;4374741;32;68751;-64
2022/12/19 09:09:51;;;;;;;;;;;;;;;;;;4374994;32;73096;-64
2022/12/19 09:12:37;;;;;;;;;;;;;;;;;;4377843;32;65044;-64
2022/12/19 09:15:24;;;;;;;;;;;;;;;;;;4364300;32;68812;-64
2022/12/19 09:18:10;;;;;;;;;;;;;;;;;;4400971;32;58815;-64
2022/12/19 09:20:57;;;;;;;;;;;;;;;;;;4375126;32;70446;-65
2022/12/19 09:23:46;;;;;;;;;;;;;;;;;;4377548;32;69406;-64
2022/12/19 09:26:33;;;;;;;;;;;;;;;;;;4377528;32;67968;-66
2022/12/19 09:29:20;;;;;;;;;;;;;;;;;;4367374;32;59880;-64
2022/12/19 09:32:07;;;;;;;;;;;;;;;;;;4385674;32;70546;-64
2022/12/19 09:34:53;;;;;;;;;;;;;;;;;;4377504;32;69664;-64
2022/12/19 09:37:40;;;;;;;;;;;;;;;;;;4353735;32;68653;-64
2022/12/19 09:40:26;;;;;;;;;;;;;;;;;;4377264;32;71979;-63
2022/12/19 09:43:23;;;;;;;;;;;;;;;;;;4385619;32;66354;-64
2022/12/19 09:46:17;;;;;;;;;;;;;;;;;;4364326;32;66034;-64
2022/12/19 09:49:09;;;;;;;;;;;;;;;;;;4400161;32;68084;-64
2022/12/19 09:51:55;;;;;;;;;;;;;;;;;;4387935;32;71865;-65
2022/12/19 09:54:41;;;;;;;;;;;;;;;;;;4399691;32;65274;-64
2022/12/19 09:57:46;;;;;;;;;;;;;;;;;;4387965;32;67070;-65
2022/12/19 10:00:38;;;;;;;;;;;;;;;;;;4400134;32;59804;-64
2022/12/19 10:03:35;;;;;;;;;;;;;;;;;;4388125;32;70259;-63
2022/12/19 10:06:22;;;;;;;;;;;;;;;;;;4374457;32;70178;-64
2022/12/19 10:09:12;;;;;;;;;;;;;;;;;;4399840;32;67537;-64
2022/12/19 10:12:05;;;;;;;;;;;;;;;;;;4400101;32;70951;-63
2022/12/19 10:14:55;;;;;;;;;;;;;;;;;;4376992;32;70224;-63
2022/12/19 10:17:44;;;;;;;;;;;;;;;;;;4376766;32;69594;-64
2022/12/19 10:20:37;;;;;;;;;;;;;;;;;;4387704;32;68151;-63
2022/12/19 10:23:34;;;;;;;;;;;;;;;;;;4377027;32;70883;-65
2022/12/19 10:26:21;;;;;;;;;;;;;;;;;;4376981;32;65142;-63
2022/12/19 10:29:24;;;;;;;;;;;;;;;;;;4376829;32;67244;-64
2022/12/19 10:32:16;;;;;;;;;;;;;;;;;;4387550;32;58730;-63
2022/12/19 10:35:07;;;;;;;;;;;;;;;;;;4376880;32;69445;-63
2022/12/19 10:38:03;;;;;;;;;;;;;;;;;;4363235;32;70056;-63
2022/12/19 10:40:54;;;;;;;;;;;;;;;;;;4387473;32;67063;-62
2022/12/19 10:43:46;;;;;;;;;;;;;;;;;;4376897;32;59839;-64
2022/12/19 10:46:44;;;;;;;;;;;;;;;;;;4377355;32;69551;-63
2022/12/19 10:49:31;;;;;;;;;;;;;;;;;;4364822;32;70180;-63
2022/12/19 10:52:37;;;;;;;;;;;;;;;;;;4388057;32;67763;-63
2022/12/19 10:55:28;;;;;;;;;;;;;;;;;;4387358;32;71874;-63
2022/12/19 10:58:18;;;;;;;;;;;;;;;;;;4399184;32;65740;-62
2022/12/19 11:01:14;;;;;;;;;;;;;;;;;;4387261;32;67848;-64
2022/12/19 11:04:19;;;;;;;;;;;;;;;;;;4387904;32;59031;-64
2022/12/19 11:07:15;;;;;;;;;;;;;;;;;;4387009;32;71731;-64
2022/12/19 11:10:01;;;;;;;;;;;;;;;;;;4399334;32;65877;-64
2022/12/19 11:12:51;;;;;;;;;;;;;;;;;;4386978;32;67328;-74
2022/12/19 11:15:38;;;;;;;;;;;;;;;;;;4376632;32;59366;-74
2022/12/19 11:18:32;;;;;;;;;;;;;;;;;;4362941;32;70601;-74
2022/12/19 11:21:19;;;;;;;;;;;;;;;;;;4373968;32;70191;-74
2022/12/19 11:24:10;;;;;;;;;;;;;;;;;;4376186;32;67833;-76
2022/12/19 11:26:57;;;;;;;;;;;;;;;;;;4384429;32;69151;-74
2022/12/19 11:29:44;;;;;;;;;;;;;;;;;;4387445;32;65821;-73
2022/12/19 11:32:33;;;;;;;;;;;;;;;;;;4373240;32;69278;-75
2022/12/19 11:35:21;;;;;;;;;;;;;;;;;;4387122;32;67099;-73
2022/12/19 11:38:08;;;;;;;;;;;;;;;;;;4398561;32;72169;-74
2022/12/19 11:40:55;;;;;;;;;;;;;;;;;;4365621;32;66590;-73
2022/12/19 11:44:02;;;;;;;;;;;;;;;;;;4398682;32;67603;-73
2022/12/19 11:46:51;;;;;;;;;;;;;;;;;;4388432;32;58952;-73
2022/12/19 11:49:40;;;;;;;;;;;;;;;;;;4365251;32;70024;-74
2022/12/19 11:52:38;;;;;;;;;;;;;;;;;;4373237;32;69623;-73
2022/12/19 11:55:29;;;;;;;;;;;;;;;;;;4383934;32;68156;-73
2022/12/19 11:58:16;;;;;;;;;;;;;;;;;;4386759;32;58854;-72
2022/12/19 12:01:12;;;;;;;;;;;;;;;;;;4398405;32;70318;-73
2022/12/19 12:04:02;;;;;;;;;;;;;;;;;;4375774;32;68508;-72
2022/12/19 12:06:52;;;;;;;;;;;;;;;;;;4384033;32;68501;-73
2022/12/19 12:09:43;;;;;;;;;;;;;;;;;;4386432;32;71834;-73
2022/12/19 12:12:35;;;;;;;;;;;;;;;;;;4362733;32;66934;-73
2022/12/19 12:15:22;;;;;;;;;;;;;;;;;;4362446;32;68162;-73
2022/12/19 12:18:23;;;;;;;;;;;;;;;;;;4386549;32;59854;-73
2022/12/19 12:21:14;;;;;;;;;;;;;;;;;;4362105;32;72598;-74
2022/12/19 12:24:03;;;;;;;;;;;;;;;;;;4398209;32;66196;-74
2022/12/19 12:27:04;;;;;;;;;;;;;;;;;;4372901;32;68971;-73
2022/12/19 12:30:58;;;;;;;;;;;;;;;;;;3847861;37;43371;-75
2022/12/19 12:34:03;;;;;;;;;;;;;;;;;;4399885;32;59511;-73
2022/12/19 12:36:52;;;;;;;;;;;;;;;;;;4386323;32;70422;-75
2022/12/19 12:39:38;;;;;;;;;;;;;;;;;;4412420;32;69774;-74
2022/12/19 12:42:24;;;;;;;;;;;;;;;;;;4388728;32;67900;-73
2022/12/19 12:45:18;;;;;;;;;;;;;;;;;;4399815;32;71918;-74
2022/12/19 12:48:15;;;;;;;;;;;;;;;;;;4369411;32;65792;-72
2022/12/19 12:51:01;;;;;;;;;;;;;;;;;;4378860;32;67630;-73
2022/12/19 12:53:48;;;;;;;;;;;;;;;;;;4403688;32;59821;-74
2022/12/19 12:56:34;;;;;;;;;;;;;;;;;;4416586;32;72021;-73
2022/12/19 12:59:22;;;;;;;;;;;;;;;;;;4391400;32;65092;-73
2022/12/19 13:02:21;;;;;;;;;;;;;;;;;;4390092;32;67529;-73
2022/12/19 13:05:23;;;;;;;;;;;;;;;;;;4401177;32;59695;-74
2022/12/19 13:08:28;;;;;;;;;;;;;;;;;;4385595;32;69679;-74
2022/12/19 13:14:34;;;;;;;;;;;;;;;;;;4411140;32;67586;-74
2022/12/19 13:17:27;;;;;;;;;;;;;;;;;;4410804;32;71996;-74
2022/12/19 13:20:13;;;;;;;;;;;;;;;;;;4388430;32;64751;-74
2022/12/19 13:22:59;;;;;;;;;;;;;;;;;;4399414;32;69083;-73
2022/12/19 13:25:48;;;;;;;;;;;;;;;;;;4383947;32;67011;-73
2022/12/19 13:28:38;;;;;;;;;;;;;;;;;;4359437;32;72649;-73
2022/12/19 13:31:25;;;;;;;;;;;;;;;;;;4373306;32;66208;-72
2022/12/19 13:34:18;;;;;;;;;;;;;;;;;;4383883;32;67320;-73
2022/12/19 13:37:07;;;;;;;;;;;;;;;;;;4363024;32;59938;-73
2022/12/19 13:39:54;;;;;;;;;;;;;;;;;;4370195;32;70040;-73
2022/12/19 13:45:57;;;;;;;;;;;;;;;;;;4375408;32;68047;-72
2022/12/19 13:48:45;;;;;;;;;;;;;;;;;;4362728;32;59877;-73
2022/12/19 13:51:47;;;;;;;;;;;;;;;;;;4359971;32;70647;-73
2022/12/19 13:54:54;;;;;;;;;;;;;;;;;;4372978;32;69340;-74
2022/12/19 13:57:41;;;;;;;;;;;;;;;;;;4362441;32;66885;-73
2022/12/19 14:00:34;;;;;;;;;;;;;;;;;;4349023;32;72349;-72
2022/12/19 14:03:21;;;;;;;;;;;;;;;;;;4349426;32;63696;-74
2022/12/19 14:06:16;;;;;;;;;;;;;;;;;;4362571;32;66485;-73
2022/12/19 14:09:03;;;;;;;;;;;;;;;;;;4384810;32;59116;-74
2022/12/19 14:11:50;;;;;;;;;;;;;;;;;;4384728;32;69964;-74
2022/12/19 14:17:48;;;;;;;;;;;;;;;;;;4364285;32;67699;-74
2022/12/19 14:20:35;;;;;;;;;;;;;;;;;;4359756;32;60644;-73
2022/12/19 14:23:21;;;;;;;;;;;;;;;;;;4372526;32;70280;-73
2022/12/19 14:26:10;;;;;;;;;;;;;;;;;;4372562;32;68700;-74
2022/12/19 14:29:07;;;;;;;;;;;;;;;;;;4369545;32;67502;-74
2022/12/19 14:31:53;;;;;;;;;;;;;;;;;;4361946;32;72136;-74
2022/12/19 14:34:39;;;;;;;;;;;;;;;;;;4372956;32;66067;-73
2022/12/19 14:37:30;;;;;;;;;;;;;;;;;;4349403;32;66362;-73
2022/12/19 14:40:26;;;;;;;;;;;;;;;;;;4372656;32;67548;-73
2022/12/19 14:46:22;;;;;;;;;;;;;;;;;;4364091;32;65104;-74
2022/12/19 14:49:25;;;;;;;;;;;;;;;;;;4372729;32;67634;-75
2022/12/19 14:52:31;;;;;;;;;;;;;;;;;;4372221;32;59010;-73
2022/12/19 14:55:21;;;;;;;;;;;;;;;;;;4372648;32;69394;-74
2022/12/19 14:58:09;;;;;;;;;;;;;;;;;;4372674;32;68503;-73
2022/12/19 15:00:56;;;;;;;;;;;;;;;;;;4359214;32;68446;-73
2022/12/19 15:03:43;;;;;;;;;;;;;;;;;;4372619;32;59565;-73
2022/12/19 15:06:29;;;;;;;;;;;;;;;;;;4372399;32;70207;-73
2022/12/19 15:09:16;;;;;;;;;;;;;;;;;;4361622;32;69486;-74
2022/12/19 15:15:17;;;;;;;;;;;;;;;;;;4350383;32;71866;-74
2022/12/19 15:18:03;;;;;;;;;;;;;;;;;;4372247;32;65859;-74
2022/12/19 15:20:50;;;;;;;;;;;;;;;;;;4372352;32;67949;-73
2022/12/19 15:23:36;;;;;;;;;;;;;;;;;;4372438;32;58794;-74
2022/12/19 15:26:27;;;;;;;;;;;;;;;;;;4361649;32;70094;-74
2022/12/19 15:29:13;;;;;;;;;;;;;;;;;;4360956;32;66120;-73
2022/12/19 15:31:59;;;;;;;;;;;;;;;;;;4351036;32;67871;-73
2022/12/19 15:34:46;;;;;;;;;;;;;;;;;;4372258;32;58835;-74
2022/12/19 15:37:32;;;;;;;;;;;;;;;;;;4383825;32;70080;-74
2022/12/19 15:40:19;;;;;;;;;;;;;;;;;;4358683;32;69952;-73
2022/12/19 15:43:05;;;;;;;;;;;;;;;;;;4361287;32;68132;-74
2022/12/19 15:45:53;;;;;;;;;;;;;;;;;;4372027;32;71544;-73
2022/12/19 15:48:41;;;;;;;;;;;;;;;;;;4361137;32;64979;-74
2022/12/19 15:51:28;;;;;;;;;;;;;;;;;;4358594;32;67452;-74
2022/12/19 15:54:14;;;;;;;;;;;;;;;;;;4361240;32;67859;-74
2022/12/19 15:57:00;;;;;;;;;;;;;;;;;;4368759;32;71733;-74
2022/12/19 15:59:47;;;;;;;;;;;;;;;;;;4383790;32;64851;-72
2022/12/19 16:02:33;;;;;;;;;;;;;;;;;;4371783;32;66682;-74
2022/12/19 16:05:20;;;;;;;;;;;;;;;;;;4347794;32;58631;-74
2022/12/19 16:08:19;;;;;;;;;;;;;;;;;;4361091;32;69943;-74
2022/12/19 16:11:08;;;;;;;;;;;;;;;;;;4371617;32;69461;-74
2022/12/19 16:13:56;;;;;;;;;;;;;;;;;;4348230;32;66911;-74
2022/12/19 16:16:42;;;;;;;;;;;;;;;;;;4371938;32;72136;-74
2022/12/19 16:19:29;;;;;;;;;;;;;;;;;;4371696;32;70136;-73
2022/12/19 16:22:19;;;;;;;;;;;;;;;;;;4350450;32;68414;-73
2022/12/19 16:25:06;;;;;;;;;;;;;;;;;;4360838;32;68146;-73
2022/12/19 16:27:54;;;;;;;;;;;;;;;;;;4371511;32;70911;-73
2022/12/19 16:30:43;;;;;;;;;;;;;;;;;;4370968;32;66053;-74
2022/12/19 16:33:29;;;;;;;;;;;;;;;;;;4371308;32;66758;-73
2022/12/19 16:36:15;;;;;;;;;;;;;;;;;;4350543;32;58880;-73
2022/12/19 16:39:02;;;;;;;;;;;;;;;;;;4371311;32;70112;-72
2022/12/19 16:41:49;;;;;;;;;;;;;;;;;;4358280;32;68292;-73
2022/12/19 16:44:36;;;;;;;;;;;;;;;;;;4350375;32;67878;-74
2022/12/19 16:47:22;;;;;;;;;;;;;;;;;;4371730;32;58962;-73
2022/12/19 16:50:20;;;;;;;;;;;;;;;;;;4371151;32;69242;-73
2022/12/19 16:53:07;;;;;;;;;;;;;;;;;;4371344;32;69458;-73
2022/12/19 16:55:54;;;;;;;;;;;;;;;;;;4371642;32;66812;-74
2022/12/19 16:58:40;;;;;;;;;;;;;;;;;;4371154;32;71793;-73
2022/12/19 17:01:27;;;;;;;;;;;;;;;;;;4360929;32;65401;-73
2022/12/19 17:04:20;;;;;;;;;;;;;;;;;;4383118;32;67350;-73
2022/12/19 17:07:09;;;;;;;;;;;;;;;;;;4350488;32;59700;-73
2022/12/19 17:09:55;;;;;;;;;;;;;;;;;;4382939;32;71997;-73
2022/12/19 17:12:42;;;;;;;;;;;;;;;;;;4347686;32;63841;-72
2022/12/19 17:15:28;;;;;;;;;;;;;;;;;;4360622;32;68073;-73
2022/12/19 17:18:21;;;;;;;;;;;;;;;;;;4360790;32;57583;-73
2022/12/19 17:21:18;;;;;;;;;;;;;;;;;;4349639;32;68723;-73
2022/12/19 17:24:05;;;;;;;;;;;;;;;;;;4373498;32;69422;-73
2022/12/19 17:26:51;;;;;;;;;;;;;;;;;;4385418;32;66947;-73
2022/12/19 17:29:37;;;;;;;;;;;;;;;;;;4385356;32;71788;-73
2022/12/19 17:32:23;;;;;;;;;;;;;;;;;;4362865;32;69964;-73
2022/12/19 17:35:17;;;;;;;;;;;;;;;;;;4385219;32;69656;-73
2022/12/19 17:38:04;;;;;;;;;;;;;;;;;;4360312;32;66726;-72
2022/12/19 17:40:51;;;;;;;;;;;;;;;;;;4385262;32;71111;-72
2022/12/19 17:43:37;;;;;;;;;;;;;;;;;;4373481;32;65838;-73
2022/12/19 17:46:25;;;;;;;;;;;;;;;;;;4373449;32;68044;-74
2022/12/19 17:49:14;;;;;;;;;;;;;;;;;;4362983;32;59742;-73
2022/12/19 17:52:01;;;;;;;;;;;;;;;;;;4373149;32;69172;-73
2022/12/19 17:54:47;;;;;;;;;;;;;;;;;;4360190;32;68549;-73
2022/12/19 17:57:34;;;;;;;;;;;;;;;;;;4362714;32;67863;-74
2022/12/19 18:00:24;;;;;;;;;;;;;;;;;;4360436;32;58885;-74
2022/12/19 18:03:18;;;;;;;;;;;;;;;;;;4359608;32;68940;-73
2022/12/19 18:06:04;;;;;;;;;;;;;;;;;;4362427;32;68436;-73
2022/12/19 18:08:50;;;;;;;;;;;;;;;;;;4373051;32;66505;-73
2022/12/19 18:11:37;;;;;;;;;;;;;;;;;;4362346;32;72142;-72
2022/12/19 18:14:23;;;;;;;;;;;;;;;;;;4349439;32;64157;-73
2022/12/19 18:17:11;;;;;;;;;;;;;;;;;;4362986;32;67019;-72
2022/12/19 18:19:57;;;;;;;;;;;;;;;;;;4350066;32;58975;-74
2022/12/19 18:22:43;;;;;;;;;;;;;;;;;;4372946;32;71817;-73
2022/12/19 18:25:30;;;;;;;;;;;;;;;;;;4362241;32;65131;-73
2022/12/19 18:28:16;;;;;;;;;;;;;;;;;;4362177;32;67035;-73
2022/12/19 18:31:05;;;;;;;;;;;;;;;;;;4384609;32;59074;-73
2022/12/19 18:33:52;;;;;;;;;;;;;;;;;;4349203;32;69013;-73
2022/12/19 18:36:39;;;;;;;;;;;;;;;;;;4348798;32;68556;-74
2022/12/19 18:39:26;;;;;;;;;;;;;;;;;;4362142;32;66908;-72
2022/12/19 18:42:18;;;;;;;;;;;;;;;;;;4362310;32;72179;-73
2022/12/19 18:45:04;;;;;;;;;;;;;;;;;;4373389;32;66014;-73
2022/12/19 18:47:52;;;;;;;;;;;;;;;;;;4373266;32;68705;-72
2022/12/19 18:50:40;;;;;;;;;;;;;;;;;;4359341;32;66816;-73
2022/12/19 18:53:33;;;;;;;;;;;;;;;;;;4362377;32;71998;-74
2022/12/19 18:56:19;;;;;;;;;;;;;;;;;;4362638;32;66255;-72
2022/12/19 18:59:05;;;;;;;;;;;;;;;;;;4348757;32;65853;-72
2022/12/19 19:01:54;;;;;;;;;;;;;;;;;;4359434;32;57444;-72
2022/12/19 19:04:40;;;;;;;;;;;;;;;;;;4372592;32;70551;-72
2022/12/19 19:07:26;;;;;;;;;;;;;;;;;;4372223;32;68942;-74
2022/12/19 19:10:16;;;;;;;;;;;;;;;;;;4384238;32;68260;-72
2022/12/19 19:13:05;;;;;;;;;;;;;;;;;;4362044;32;59808;-73
2022/12/19 19:15:52;;;;;;;;;;;;;;;;;;4361776;32;70372;-72
2022/12/19 19:18:39;;;;;;;;;;;;;;;;;;4361709;32;69258;-73
2022/12/19 19:21:26;;;;;;;;;;;;;;;;;;4372156;32;67775;-74
2022/12/19 19:24:14;;;;;;;;;;;;;;;;;;4371937;32;71213;-73
2022/12/19 19:27:00;;;;;;;;;;;;;;;;;;4361609;32;66396;-73
2022/12/19 19:29:46;;;;;;;;;;;;;;;;;;4383683;32;67866;-74
2022/12/19 19:32:33;;;;;;;;;;;;;;;;;;4369425;32;59759;-73